Terminal Aerodrome Forecast
Issued by NWS

Home | Current Version | Previous Version | Text Only | Print | Product List | Glossary On
Versions: 1 2 3 4 5 6 7 8 9 10 11 12 13 14 15 16 17 18 19 20 21
000
FTUS46 KSEW 202329
TAFBFI
TAF
KBFI 202329Z 2100/2124 15008KT P6SM VCSH BKN025 OVC040
      TEMPO 2100/2102 -SHRA
     FM210200 16011KT P6SM VCSH SCT025 BKN040 OVC050
     FM210400 16013G23KT P6SM SCT040 BKN060 WS020/21045KT
     FM211300 15015G25KT 6SM -RA BKN030 OVC050 WS020/19050KT
     FM211900 17013G23KT P6SM -SHRA SCT018 BKN030 BKN050=

USA.gov is the U.S. government's official web portal to all federal, state and local government web resources and services.